HST,Max TemperatureF,Mean TemperatureF,Min TemperatureF,Max Dew PointF,MeanDew PointF,Min DewpointF,Max Humidity, Mean Humidity, Min Humidity, Max Sea Level PressureIn, Mean Sea Level PressureIn, Min Sea Level PressureIn, Max VisibilityMiles, Mean VisibilityMiles, Min VisibilityMiles, Max Wind SpeedMPH, Mean Wind SpeedMPH, Max Gust SpeedMPH,PrecipitationIn, CloudCover, Events, WindDirDegrees
2013-5-1,79,72,64,67,64,62,94,76,56,30.07,30.02,29.99,10,10,10,13,5,,0.00,2,,86
2013-5-2,79,72,64,69,65,62,94,85,60,30.08,30.05,30.01,10,8,2,14,2,,0.03,5,Rain,77
2013-5-3,79,71,63,66,63,60,92,77,51,30.06,30.01,29.96,10,10,10,8,4,,0.00,4,,142
2013-5-4,78,70,63,68,66,61,96,87,63,29.99,29.93,29.90,10,7,0,8,3,,1.41,5,Fog-Rain,316
2013-5-5,71,68,65,68,67,64,100,94,83,29.93,29.89,29.85,10,8,1,13,3,17,0.60,6,Rain,177
2013-5-6,77,70,64,66,63,59,94,80,55,29.96,29.90,29.85,10,10,9,14,7,,0.01,4,,334
2013-5-7,77,70,63,65,62,60,91,77,65,29.99,29.94,29.89,10,10,10,14,5,,0.00,3,,335
2013-5-8,79,70,61,63,61,58,89,74,58,30.01,29.96,29.92,10,10,5,9,4,,0.00,2,,332
2013-5-9,78,70,62,67,64,60,93,78,63,30.07,30.00,29.96,10,10,10,12,4,,0.01,6,,333
2013-5-10,79,74,68,67,66,64,89,79,65,30.11,30.05,30.01,10,10,10,12,7,16,0.00,6,,334
2013-5-11,77,72,67,65,64,63,88,78,61,30.11,30.07,30.02,10,10,10,13,8,,0.00,5,,340
2013-5-12,75,71,67,67,65,62,88,80,69,30.11,30.07,30.02,10,10,9,13,7,18,0.00,7,Rain,348
2013-5-13,77,72,68,68,66,64,100,85,67,30.07,30.03,30.01,10,8,2,13,3,22,0.32,7,Rain,152
2013-5-14,80,74,69,67,65,63,90,76,59,30.10,30.06,30.03,10,10,9,16,5,22,0.00,4,,101
2013-5-15,80,74,68,66,64,62,88,73,54,30.13,30.10,30.06,10,10,10,14,7,18,0.00,5,Rain,63
2013-5-16,79,73,67,66,64,61,94,78,52,30.12,30.08,30.04,10,10,10,20,8,25,0.01,1,Rain,52
2013-5-17,79,74,68,65,63,60,88,74,53,30.06,30.03,29.99,10,10,9,18,8,21,0.03,3,Rain,58
2013-5-18,80,72,64,68,64,61,91,78,51,30.04,29.99,29.95,10,10,6,12,4,,0.04,4,Rain,307
2013-5-19,79,72,65,67,64,62,91,79,61,30.00,29.94,29.90,10,10,10,16,8,22,0.00,2,Rain,327
2013-5-20,79,71,62,62,59,56,87,69,47,29.98,29.93,29.88,10,10,10,13,7,,0.00,4,,325
2013-5-21,80,69,58,62,60,56,92,74,49,29.99,29.95,29.91,10,10,10,9,2,,0.00,2,,330
2013-5-22,81,72,62,68,67,59,95,80,59,30.04,29.98,29.93,10,9,2,9,4,,0.18,5,Rain,341
2013-5-23,84,74,64,67,65,62,95,74,48,30.06,30.01,29.96,10,10,10,12,3,,0.00,1,,47
2013-5-24,81,74,66,66,65,63,91,74,57,30.06,30.04,30.01,10,10,7,17,6,17,0.01,3,Rain,39
2013-5-25,79,74,68,68,66,63,84,76,65,30.08,30.03,30.01,10,10,4,18,6,22,0.01,4,Rain,42
2013-5-26,80,73,66,65,63,61,85,70,54,30.10,30.05,30.00,10,10,10,20,6,23,0.00,2,,56
2013-5-27,81,74,67,64,63,61,87,69,51,30.09,30.06,30.03,10,10,10,17,5,26,0.00,1,,64
2013-5-28,78,72,67,68,65,63,94,84,66,30.09,30.05,30.02,10,8,2,15,3,,0.28,6,Rain,59
2013-5-29,79,72,65,71,68,64,96,87,64,30.05,30.03,30.01,10,9,4,14,4,,0.30,5,Rain,359
2013-5-30,82,74,65,68,66,64,94,78,57,30.03,29.99,29.94,10,10,10,14,4,,0.00,3,,90
2013-5-31,81,74,68,70,68,65,95,78,64,30.04,29.99,29.94,10,10,7,13,4,22,0.00,6,,84